Burton Joyce, United Kingdom
Current Conditions -  °F | °C
As of 9:50 AM on Thursday 23 Oct 2014 (Local Time) from EGNX Reporting Station
Light Rain Light Rain  
Wind Chill: 54°   Ceiling: 2400
Heat Index: 54°   Visibility: 6mi
Dew Point: 50°   Wind: 14mph
Humidity: 88%   Direction: 200°SSW
Pressure: 30.03"   Gusts: NA
Location:  52.99°N, 1.03°W
Report Text: EGNX 230850Z 20012KT 9999 -RADZ SCT010 BKN024 12/10 Q1017
Loading
Personal Weather Stations






























Interactive Weather Map
Tropical Storm Tracking
New forecast layout! Learn more

10-Day Weather Forecast

Advertisements
Track Severe Weather on mobile